Flight Track Log - Related Links

Times and Time Zones

All times are in EDT time to prevent confusion due to time zone crossing. See the N50838 flight status page for this flight to view local times or setup timezone preferences in your user account.

Time Position Orientation Groundspeed Altitude Reporting Facility
EDT Latitude Longitude Course Direction KTS MPH feet Rate Location/Type
Mon 05:08:59 PM 47.5206 -122.2961 159° South 71 82 700  Level Seattle Center
Mon 05:10:18 PM 47.4997 -122.2844 159° South 59 68 1,700 761 Climbing Seattle Center
Mon 05:11:13 PM 47.4864 -122.2756 156° South 56 64 2,400 694 Climbing Seattle Center
Mon 05:12:19 PM 47.4794 -122.2564 118° Southeast 72 83 3,100 550 Climbing Seattle Center
Mon 05:13:13 PM 47.5008 -122.2408 26° Northeast 91 105 3,500 470 Climbing Seattle Center
Mon 05:14:14 PM 47.5283 -122.2258 20° North 101 116 4,000 246 Climbing Seattle Center
Mon 05:15:15 PM 47.5594 -122.2081 21° North 112 129 4,000  Level Seattle Center
Mon 05:16:17 PM 47.5942 -122.1831 26° Northeast 125 144 4,000 -49 Level Seattle Center
Mon 05:17:17 PM 47.6233 -122.1853 357° North 128 147 3,900  Descending Seattle Center
Mon 05:18:18 PM 47.6653 -122.1900 356° North 129 148 4,000 50 Climbing Seattle Center
Mon 05:19:18 PM 47.7000 -122.1950 354° North 128 147 4,000  Level Seattle Center
Mon 05:20:19 PM 47.7344 -122.2003 354° North 128 147 4,000  Level Seattle Center
Mon 05:21:20 PM 47.7697 -122.2058 354° North 128 147 4,000 -49 Level Seattle Center
Mon 05:22:21 PM 47.8042 -122.2119 353° North 128 147 3,900 -49 Descending Seattle Center
Mon 05:23:22 PM 47.8408 -122.2211 350° North 131 151 3,900 47 Level Seattle Center
Mon 05:24:29 PM 47.8867 -122.2314 351° North 134 154 4,000 47 Climbing Seattle Center
Mon 05:25:30 PM 47.9236 -122.2369 354° North 139 160 4,000  Level Seattle Center
Mon 05:26:25 PM 47.9583 -122.2447 351° North 136 157 4,000  Level Seattle Center
Mon 05:27:26 PM 47.9947 -122.2519 352° North 136 157 4,000 -189 Level Seattle Center
Mon 05:28:32 PM 48.0336 -122.2683 344° North 121 139 3,600 -443 Descending Seattle Center
Mon 05:29:28 PM 48.0606 -122.2808 343° North 124 143 3,100 -769 Descending Seattle Center
Mon 05:30:29 PM 48.0611 -122.3228 271° West 112 129 2,100 -541 Descending Seattle Center
Mon 05:31:30 PM 48.0394 -122.3403 208° Southwest 96 110 2,000 -295 Descending Seattle Center
Mon 05:32:31 PM 48.0167 -122.3261 157° South 79 91 1,500 -476 Descending Seattle Center
Mon 05:33:36 PM 47.9928 -122.3178 167° South 78 90 1,000 -197 Descending Seattle Center
Mon 05:34:33 PM 47.9756 -122.3061 156° South 78 90 1,100 49 Climbing Seattle Center
Mon 05:35:38 PM 47.9494 -122.2956 165° South 84 97 1,100 -98 Level Seattle Center
Mon 05:36:35 PM 47.9342 -122.2881 162° South 78 90 900 -153 Descending Seattle Center
Mon 05:37:36 PM 47.9175 -122.2833 169° South 71 82 800 -98 Descending Seattle Center

Login

Don't have an account? Register now (free) for customized features, flight alerts, and more!